Time;durP1;ratioP1;P1;durP2;ratioP2;P2;SDS_P1;SDS_P2;PMS_P1;PMS_P2;Temp;Humidity;BMP_temperature;BMP_pressure;BME280_temperature;BME280_humidity;BME280_pressure;Samples;Min_cycle;Max_cycle;Signal;HPM_P1;HPM_P2
2022/11/13 00:01:13;;;;;;;;;;;;;;;10.00;100.00;101737.34;5048929;28;19913;-30
2022/11/13 00:03:38;;;;;;;;;;;;;;;9.97;100.00;101732.38;5067526;28;19927;-29
2022/11/13 00:06:04;;;;;;;;;;;;;;;9.93;100.00;101731.06;5049500;28;19920;-27
2022/11/13 00:08:29;;;;;;;;;;;;;;;10.06;100.00;101727.84;5067232;28;20244;-30
2022/11/13 00:11:24;;;;;;;;;;;;;;;10.02;100.00;101727.34;5067329;28;19954;-28
2022/11/13 00:13:49;;;;;;;;;;;;;;;9.99;100.00;101722.38;5058186;28;19922;-29
2022/11/13 00:16:16;;;;;;;;;;;;;;;10.02;100.00;101727.34;5067332;28;19913;-28
2022/11/13 00:18:41;;;;;;;;;;;;;;;10.06;100.00;101723.34;5067397;28;19981;-28
2022/11/13 00:21:08;;;;;;;;;;;;;;;10.22;100.00;101716.25;5050827;28;19916;-29
2022/11/13 00:23:34;;;;;;;;;;;;;;;10.23;100.00;101715.25;5053520;28;20373;-34
2022/11/13 00:26:04;;;;;;;;;;;;;;;10.17;100.00;101724.75;5053544;28;19916;-29
2022/11/13 00:28:29;;;;;;;;;;;;;;;10.09;100.00;101716.81;5053304;28;19916;-29
2022/11/13 00:30:59;;;;;;;;;;;;;;;9.96;100.00;101722.72;5053312;28;19923;-30
2022/11/13 00:33:24;;;;;;;;;;;;;;;9.97;100.00;101719.06;5053795;28;19924;-30
2022/11/13 00:35:50;;;;;;;;;;;;;;;10.06;100.00;101718.00;5071049;28;19912;-29
2022/11/13 00:38:15;;;;;;;;;;;;;;;10.00;100.00;101716.03;5071613;28;19916;-28
2022/11/13 00:40:40;;;;;;;;;;;;;;;9.78;100.00;101725.63;5052795;28;19920;-28
2022/11/13 00:43:05;;;;;;;;;;;;;;;9.70;100.00;101723.00;5070907;28;19916;-37
2022/11/13 00:45:31;;;;;;;;;;;;;;;9.93;100.00;101712.41;5071320;28;20403;-28
2022/11/13 00:47:56;;;;;;;;;;;;;;;9.97;100.00;101713.72;5071191;28;19951;-28
2022/11/13 00:50:21;;;;;;;;;;;;;;;9.96;100.00;101706.72;5071181;28;19916;-28
2022/11/13 00:52:46;;;;;;;;;;;;;;;10.01;100.00;101711.53;5070882;28;19912;-28
2022/11/13 00:55:12;;;;;;;;;;;;;;;9.96;100.00;101708.56;5070954;28;19912;-28
2022/11/13 00:57:37;;;;;;;;;;;;;;;9.88;100.00;101708.63;5052456;28;19970;-28
2022/11/13 01:00:03;;;;;;;;;;;;;;;9.93;100.00;101714.22;5071280;28;20384;-28
2022/11/13 01:02:28;;;;;;;;;;;;;;;9.90;100.00;101711.94;5070738;28;19926;-31
2022/11/13 01:04:53;;;;;;;;;;;;;;;10.05;100.00;101704.84;5070631;28;19924;-32
2022/11/13 01:07:18;;;;;;;;;;;;;;;10.01;100.00;101709.72;5070527;28;20446;-28
2022/11/13 01:09:48;;;;;;;;;;;;;;;9.92;100.00;101717.91;5070610;28;19916;-29
2022/11/13 01:12:13;;;;;;;;;;;;;;;9.96;100.00;101714.72;5070345;28;19916;-29
2022/11/13 01:14:38;;;;;;;;;;;;;;;10.05;100.00;101718.16;5070800;28;19935;-29
2022/11/13 01:17:04;;;;;;;;;;;;;;;10.19;100.00;101719.25;5052087;28;20319;-33
2022/11/13 01:19:29;;;;;;;;;;;;;;;10.21;100.00;101714.59;5070435;28;19956;-29
2022/11/13 01:21:54;;;;;;;;;;;;;;;10.09;100.00;101710.66;5070210;28;19912;-28
2022/11/13 01:24:19;;;;;;;;;;;;;;;10.05;100.00;101707.50;5070060;28;19912;-30
2022/11/13 01:26:45;;;;;;;;;;;;;;;10.15;100.00;101699.28;5069739;28;20316;-29
2022/11/13 01:29:11;;;;;;;;;;;;;;;10.05;100.00;101699.50;5070298;28;19920;-28
2022/11/13 01:31:36;;;;;;;;;;;;;;;10.01;100.00;101700.88;5070686;28;19916;-33
2022/11/13 01:34:02;;;;;;;;;;;;;;;9.93;100.00;101696.44;5069253;28;19916;-29
2022/11/13 01:36:27;;;;;;;;;;;;;;;10.10;100.00;101699.81;5070202;28;19913;-27
2022/11/13 01:38:53;;;;;;;;;;;;;;;9.99;100.00;101701.06;5070018;28;19984;-28
2022/11/13 01:41:28;;;;;;;;;;;;;;;10.10;100.00;101701.69;5051551;28;19922;-28
2022/11/13 01:43:53;;;;;;;;;;;;;;;10.21;100.00;101704.75;5070131;28;19916;-27
2022/11/13 01:46:21;;;;;;;;;;;;;;;10.29;100.00;101703.88;5070048;28;19922;-28
2022/11/13 01:49:01;;;;;;;;;;;;;;;10.26;100.00;101701.56;5069773;28;19981;-33
2022/11/13 01:51:29;;;;;;;;;;;;;;;10.13;100.00;101701.31;5069874;28;19923;-29
2022/11/13 01:53:56;;;;;;;;;;;;;;;10.21;100.00;101703.94;5070230;28;19923;-31
2022/11/13 01:56:21;;;;;;;;;;;;;;;10.20;100.00;101707.59;5070179;28;19923;-27
2022/11/13 01:58:51;;;;;;;;;;;;;;;10.10;100.00;101707.00;5069621;28;19920;-30
2022/11/13 02:01:16;;;;;;;;;;;;;;;10.02;100.00;101710.53;5069572;28;20363;-29
2022/11/13 02:03:42;;;;;;;;;;;;;;;9.94;100.00;101703.41;5069539;28;19925;-32
2022/11/13 02:06:07;;;;;;;;;;;;;;;9.98;100.00;101699.38;5069344;28;20021;-28
2022/11/13 02:08:32;;;;;;;;;;;;;;;10.17;100.00;101702.63;5051364;28;19920;-30
2022/11/13 02:10:58;;;;;;;;;;;;;;;10.25;100.00;101702.56;5069323;28;19912;-32
2022/11/13 02:13:24;;;;;;;;;;;;;;;10.39;100.00;101707.16;5069459;28;19918;-28
2022/11/13 02:15:50;;;;;;;;;;;;;;;10.38;100.00;101715.34;5069335;28;20618;-27
2022/11/13 02:18:15;;;;;;;;;;;;;;;10.31;100.00;101709.06;5069297;28;20003;-28
2022/11/13 02:20:43;;;;;;;;;;;;;;;10.18;100.00;101709.63;5069501;28;20011;-29
2022/11/13 02:23:27;;;;;;;;;;;;;;;10.11;100.00;101703.31;5069225;28;19912;-28
2022/11/13 02:25:53;;;;;;;;;;;;;;;10.12;100.00;101710.31;5069246;28;20376;-31
2022/11/13 02:28:18;;;;;;;;;;;;;;;10.24;100.00;101706.25;5050849;28;19913;-28
2022/11/13 02:30:44;;;;;;;;;;;;;;;10.06;100.00;101707.34;5068910;28;20057;-29
2022/11/13 02:33:36;;;;;;;;;;;;;;;10.13;100.00;101706.63;5068753;28;20352;-32
2022/11/13 02:36:01;;;;;;;;;;;;;;;10.18;100.00;101704.28;5070582;28;20036;-30
2022/11/13 02:38:27;;;;;;;;;;;;;;;10.16;100.00;101707.13;5089104;28;20030;-29
2022/11/13 02:40:52;;;;;;;;;;;;;;;10.06;100.00;101699.34;5089122;28;19915;-29
2022/11/13 02:43:17;;;;;;;;;;;;;;;10.29;100.00;101693.19;5088903;28;19955;-34
2022/11/13 02:45:43;;;;;;;;;;;;;;;10.26;100.00;101696.25;5088949;28;19919;-31
2022/11/13 02:48:08;;;;;;;;;;;;;;;10.26;100.00;101696.25;5070687;28;19916;-30
2022/11/13 02:50:34;;;;;;;;;;;;;;;10.26;100.00;101701.56;5088976;28;19955;-27
2022/11/13 02:53:00;;;;;;;;;;;;;;;10.13;100.00;101703.97;5088697;28;19923;-28
2022/11/13 02:55:25;;;;;;;;;;;;;;;10.03;100.00;101698.84;5088579;28;19915;-30
2022/11/13 02:57:50;;;;;;;;;;;;;;;9.98;100.00;101701.22;5089120;28;19965;-28
2022/11/13 03:00:16;;;;;;;;;;;;;;;10.06;100.00;101696.69;5088570;28;19962;-29
2022/11/13 03:02:41;;;;;;;;;;;;;;;10.26;100.00;101698.91;5070340;28;19980;-30
2022/11/13 03:05:06;;;;;;;;;;;;;;;10.28;100.00;101694.22;5070118;28;19973;-30
2022/11/13 03:07:32;;;;;;;;;;;;;;;10.43;100.00;101697.81;5088766;28;20387;-32
2022/11/13 03:09:57;;;;;;;;;;;;;;;10.26;100.00;101690.91;5070111;28;19912;-30
2022/11/13 03:12:22;;;;;;;;;;;;;;;10.01;100.00;101687.53;5088450;28;20010;-28
2022/11/13 03:14:47;;;;;;;;;;;;;;;10.16;100.00;101690.31;5087023;28;19916;-30
2022/11/13 03:17:13;;;;;;;;;;;;;;;10.10;100.00;101685.69;5088111;28;19997;-28
2022/11/13 03:19:38;;;;;;;;;;;;;;;10.12;100.00;101700.47;5088517;28;20034;-28
2022/11/13 03:22:03;;;;;;;;;;;;;;;10.22;100.00;101692.28;5070109;28;20307;-30
2022/11/13 03:24:29;;;;;;;;;;;;;;;10.33;100.00;101691.06;5088556;28;20355;-30
2022/11/13 03:26:54;;;;;;;;;;;;;;;10.12;100.00;101695.16;5088053;28;19911;-30
2022/11/13 03:29:19;;;;;;;;;;;;;;;9.98;100.00;101682.56;5088183;28;19935;-33
2022/11/13 03:31:44;;;;;;;;;;;;;;;10.13;100.00;101699.47;5088073;28;19922;-28
2022/11/13 03:34:10;;;;;;;;;;;;;;;9.99;100.00;101690.41;5069863;28;20395;-32
2022/11/13 03:36:35;;;;;;;;;;;;;;;9.81;100.00;101688.00;5088148;28;19999;-28
2022/11/13 03:39:00;;;;;;;;;;;;;;;9.78;100.00;101693.66;5087846;28;19947;-28
2022/11/13 03:41:26;;;;;;;;;;;;;;;9.93;100.00;101691.09;5087970;28;19919;-29
2022/11/13 03:43:51;;;;;;;;;;;;;;;10.01;100.00;101687.53;5088235;28;20030;-28
2022/11/13 03:46:16;;;;;;;;;;;;;;;9.88;100.00;101688.13;5069532;28;19916;-28
2022/11/13 03:48:42;;;;;;;;;;;;;;;9.63;100.00;101674.09;5087979;28;20682;-31
2022/11/13 03:51:07;;;;;;;;;;;;;;;10.11;100.00;101687.31;5088363;28;20010;-30
2022/11/13 03:53:32;;;;;;;;;;;;;;;10.10;100.00;101685.69;5087460;28;19916;-28
2022/11/13 03:55:58;;;;;;;;;;;;;;;9.95;100.00;101677.56;5087273;28;19959;-36
2022/11/13 03:58:23;;;;;;;;;;;;;;;9.97;100.00;101678.22;5087518;28;19989;-29
2022/11/13 04:00:49;;;;;;;;;;;;;;;9.91;100.00;101677.13;5087136;28;19912;-28
2022/11/13 04:03:14;;;;;;;;;;;;;;;10.14;100.00;101673.66;5087835;28;20453;-29
2022/11/13 04:05:40;;;;;;;;;;;;;;;10.28;100.00;101678.22;5087912;28;19920;-27
2022/11/13 04:08:05;;;;;;;;;;;;;;;10.20;100.00;101680.94;5086096;28;19919;-33
2022/11/13 04:10:31;;;;;;;;;;;;;;;10.23;100.00;101677.91;5087538;28;20307;-27
2022/11/13 04:12:56;;;;;;;;;;;;;;;10.26;100.00;101681.06;5087287;28;19922;-27
2022/11/13 04:15:22;;;;;;;;;;;;;;;10.27;100.00;101680.03;5069038;28;19962;-33
2022/11/13 04:17:47;;;;;;;;;;;;;;;9.93;100.00;101680.44;5087469;28;20014;-31
2022/11/13 04:20:13;;;;;;;;;;;;;;;10.10;100.00;101677.69;5087474;28;19966;-29
2022/11/13 04:22:38;;;;;;;;;;;;;;;10.05;100.00;101676.38;5087368;28;19916;-28
2022/11/13 04:25:04;;;;;;;;;;;;;;;9.77;100.00;101685.84;5068921;28;19958;-32
2022/11/13 04:27:29;;;;;;;;;;;;;;;9.75;100.00;101682.53;5085657;28;20288;-29
2022/11/13 04:29:54;;;;;;;;;;;;;;;9.83;100.00;101683.31;5087099;28;19973;-32
2022/11/13 04:32:20;;;;;;;;;;;;;;;9.82;100.00;101684.31;5087403;28;20284;-29
2022/11/13 04:34:45;;;;;;;;;;;;;;;10.09;100.00;101690.16;5087187;28;19920;-29
2022/11/13 04:37:10;;;;;;;;;;;;;;;10.23;100.00;101696.56;5087278;28;19912;-29
2022/11/13 04:39:36;;;;;;;;;;;;;;;10.25;100.00;101686.56;5068694;28;19916;-27
2022/11/13 04:44:44;;;;;;;;;;;;;;;10.04;100.00;101698.69;5086823;28;20047;-31
2022/11/13 04:47:10;;;;;;;;;;;;;;;10.24;100.00;101703.59;5087179;28;20416;-29
2022/11/13 04:49:35;;;;;;;;;;;;;;;10.15;100.00;101699.28;5087206;28;19920;-29
2022/11/13 04:52:00;;;;;;;;;;;;;;;10.11;100.00;101688.16;5087708;28;19947;-28
2022/11/13 04:54:26;;;;;;;;;;;;;;;9.98;100.00;101688.72;5087221;28;19922;-32
2022/11/13 04:56:51;;;;;;;;;;;;;;;9.90;100.00;101677.28;5085384;28;19923;-30
2022/11/13 04:59:16;;;;;;;;;;;;;;;10.12;100.00;101692.50;5087298;28;19912;-29
2022/11/13 05:01:41;;;;;;;;;;;;;;;9.96;100.00;101689.91;5086963;28;19920;-36
2022/11/13 05:04:09;;;;;;;;;;;;;;;9.86;100.00;101690.13;5087146;28;20448;-30
2022/11/13 05:06:34;;;;;;;;;;;;;;;9.80;100.00;101685.50;5085977;28;19920;-31
2022/11/13 05:09:00;;;;;;;;;;;;;;;10.02;100.00;101690.03;5090822;28;20708;-28
2022/11/13 05:11:25;;;;;;;;;;;;;;;10.16;100.00;101695.63;5090637;28;19916;-27
2022/11/13 05:13:50;;;;;;;;;;;;;;;10.13;100.00;101693.31;5090590;28;20396;-28
2022/11/13 05:16:16;;;;;;;;;;;;;;;10.16;100.00;101691.13;5090852;28;19965;-28
2022/11/13 05:18:41;;;;;;;;;;;;;;;10.11;100.00;101693.47;5090799;28;20376;-27
2022/11/13 05:21:07;;;;;;;;;;;;;;;10.28;100.00;101699.56;5090405;28;19924;-31
2022/11/13 05:23:32;;;;;;;;;;;;;;;10.19;100.00;101695.28;5090276;28;20641;-29
2022/11/13 05:26:01;;;;;;;;;;;;;;;10.22;100.00;101694.94;5090377;28;19916;-35
2022/11/13 05:28:27;;;;;;;;;;;;;;;9.98;100.00;101696.72;5090359;28;20379;-30
2022/11/13 05:30:52;;;;;;;;;;;;;;;9.89;100.00;101699.59;5072016;28;19923;-28
2022/11/13 05:33:17;;;;;;;;;;;;;;;9.98;100.00;101704.72;5072067;28;19912;-35
2022/11/13 05:35:43;;;;;;;;;;;;;;;10.19;100.00;101703.28;5090555;28;19912;-28
2022/11/13 05:38:08;;;;;;;;;;;;;;;10.16;100.00;101707.13;5071878;28;19923;-29
2022/11/13 05:40:33;;;;;;;;;;;;;;;10.00;100.00;101697.38;5071877;28;19919;-28
2022/11/13 05:42:58;;;;;;;;;;;;;;;9.96;100.00;101708.56;5071544;28;19919;-33
2022/11/13 05:45:24;;;;;;;;;;;;;;;10.16;100.00;101711.63;5090032;28;19996;-31
2022/11/13 05:47:49;;;;;;;;;;;;;;;10.19;100.00;101705.94;5090079;28;19923;-28
2022/11/13 05:50:15;;;;;;;;;;;;;;;10.09;100.00;101710.66;5071672;28;19915;-33
2022/11/13 05:52:40;;;;;;;;;;;;;;;10.13;100.00;101711.97;5089960;28;19916;-30
2022/11/13 05:55:06;;;;;;;;;;;;;;;10.24;100.00;101708.91;5089551;28;19927;-38
2022/11/13 05:57:31;;;;;;;;;;;;;;;10.38;100.00;101713.53;5089599;28;19920;-28
2022/11/13 05:59:56;;;;;;;;;;;;;;;10.25;100.00;101722.06;5090092;28;19963;-28
2022/11/13 06:02:21;;;;;;;;;;;;;;;10.19;100.00;101721.94;5089722;28;19927;-31
2022/11/13 06:04:47;;;;;;;;;;;;;;;10.37;100.00;101730.50;5089553;28;19970;-30
2022/11/13 06:07:12;;;;;;;;;;;;;;;10.38;100.00;101726.84;5089717;28;19920;-28
2022/11/13 06:09:38;;;;;;;;;;;;;;;10.35;100.00;101731.72;5071181;28;19954;-27
2022/11/13 06:12:03;;;;;;;;;;;;;;;10.30;100.00;101724.25;5089090;28;19946;-27
2022/11/13 06:14:29;;;;;;;;;;;;;;;10.31;100.00;101719.72;5089251;28;19919;-28
2022/11/13 06:16:54;;;;;;;;;;;;;;;10.59;100.00;101726.19;5070888;28;19976;-30
2022/11/13 06:19:19;;;;;;;;;;;;;;;10.60;100.00;101727.88;5088882;28;19938;-27
2022/11/13 06:21:44;;;;;;;;;;;;;;;10.72;100.00;101722.94;5089544;28;20558;-31
2022/11/13 06:24:11;;;;;;;;;;;;;;;10.64;100.00;101726.50;5089311;28;19916;-30
2022/11/13 06:26:36;;;;;;;;;;;;;;;10.66;100.00;101728.97;5089144;28;20352;-29
2022/11/13 06:29:02;;;;;;;;;;;;;;;10.62;100.00;101728.53;5089062;28;19926;-30
2022/11/13 06:31:29;;;;;;;;;;;;;;;10.63;100.00;101735.50;5088980;28;19920;-30
2022/11/13 06:33:55;;;;;;;;;;;;;;;10.65;100.00;101730.00;5089077;28;20010;-30
2022/11/13 06:36:22;;;;;;;;;;;;;;;10.80;100.00;101727.38;5089003;28;19968;-30
2022/11/13 06:38:48;;;;;;;;;;;;;;;10.75;100.00;101729.78;5070396;28;20390;-28
2022/11/13 06:41:14;;;;;;;;;;;;;;;10.63;100.00;101721.34;5070518;28;19923;-27
2022/11/13 06:43:40;;;;;;;;;;;;;;;10.74;100.00;101726.25;5089114;28;19916;-27
2022/11/13 06:46:07;;;;;;;;;;;;;;;10.71;100.00;101721.28;5087482;28;20627;-37
2022/11/13 06:48:33;;;;;;;;;;;;;;;10.79;100.00;101723.88;5088898;28;19919;-31
2022/11/13 06:51:02;;;;;;;;;;;;;;;10.72;100.00;101717.59;5088362;28;19915;-29
2022/11/13 06:53:28;;;;;;;;;;;;;;;10.98;100.00;101717.22;5088697;28;19923;-30
2022/11/13 06:55:53;;;;;;;;;;;;;;;11.11;100.00;101718.44;5070235;28;19915;-28
2022/11/13 06:58:18;;;;;;;;;;;;;;;11.07;100.00;101717.94;5088688;28;20415;-28
2022/11/13 07:00:44;;;;;;;;;;;;;;;11.10;100.00;101708.78;5088884;28;19968;-31
2022/11/13 07:03:20;;;;;;;;;;;;;;;11.23;100.00;101720.47;5070353;28;20007;-27
2022/11/13 07:05:46;;;;;;;;;;;;;;;11.30;100.00;101723.25;5088588;28;19916;-28
2022/11/13 07:08:11;;;;;;;;;;;;;;;11.38;100.00;101720.50;5088341;28;19926;-29
2022/11/13 07:10:37;;;;;;;;;;;;;;;11.15;100.00;101717.06;5088437;28;19916;-30
2022/11/13 07:13:02;;;;;;;;;;;;;;;11.27;100.00;101721.75;5088432;28;19942;-29
2022/11/13 07:15:27;;;;;;;;;;;;;;;11.32;100.00;101717.69;5088331;28;19923;-29
2022/11/13 07:17:52;;;;;;;;;;;;;;;11.50;100.00;101715.50;5069940;28;19916;-29
2022/11/13 07:20:18;;;;;;;;;;;;;;;11.54;100.00;101708.78;5069918;28;19912;-32
2022/11/13 07:22:43;;;;;;;;;;;;;;;11.55;100.00;101720.31;5088327;28;19912;-29
2022/11/13 07:25:08;;;;;;;;;;;;;;;11.45;100.00;101712.56;5088550;28;20567;-28
2022/11/13 07:27:34;;;;;;;;;;;;;;;11.49;100.00;101713.03;5087974;28;19972;-33
2022/11/13 07:29:59;;;;;;;;;;;;;;;11.66;100.00;101714.50;5069454;28;20388;-28
2022/11/13 07:32:24;;;;;;;;;;;;;;;11.60;100.00;101710.69;5069390;28;19916;-30
2022/11/13 07:34:49;;;;;;;;;;;;;;;11.77;99.72;101710.50;5087689;28;19912;-32
2022/11/13 07:37:15;;;;;;;;;;;;;;;11.93;99.21;101718.38;5069498;28;19956;-30
2022/11/13 07:39:40;;;;;;;;;;;;;;;11.95;99.14;101708.31;5088207;28;19915;-31
2022/11/13 07:42:05;;;;;;;;;;;;;;;11.96;98.99;101707.28;5088122;28;19916;-29
2022/11/13 07:44:31;;;;;;;;;;;;;;;12.11;97.93;101707.25;5087993;28;20342;-28
2022/11/13 07:46:56;;;;;;;;;;;;;;;11.97;98.36;101700.94;5087775;28;19995;-30
2022/11/13 07:49:21;;;;;;;;;;;;;;;12.04;97.43;101706.34;5069528;28;20022;-29
2022/11/13 07:51:47;;;;;;;;;;;;;;;11.93;99.24;101701.47;5069211;28;19912;-28
2022/11/13 07:54:12;;;;;;;;;;;;;;;12.16;99.94;101696.81;5087587;28;20002;-28
2022/11/13 07:56:37;;;;;;;;;;;;;;;12.15;97.75;101699.69;5087665;28;19981;-27
2022/11/13 07:59:02;;;;;;;;;;;;;;;12.04;99.45;101691.13;5069484;28;19998;-28
2022/11/13 08:01:28;;;;;;;;;;;;;;;12.21;97.62;101691.72;5087690;28;20459;-28
2022/11/13 08:03:53;;;;;;;;;;;;;;;12.24;95.98;101695.88;5087664;28;19920;-30
2022/11/13 08:06:18;;;;;;;;;;;;;;;12.20;97.97;101699.97;5087126;28;19916;-29
2022/11/13 08:08:46;;;;;;;;;;;;;;;12.17;99.04;101705.66;5087302;28;19916;-32
2022/11/13 08:11:11;;;;;;;;;;;;;;;12.30;98.62;101694.28;5087541;28;19918;-28
2022/11/13 08:13:37;;;;;;;;;;;;;;;12.38;96.90;101689.66;5087465;28;19916;-28
2022/11/13 08:16:02;;;;;;;;;;;;;;;12.46;97.68;101700.22;5069107;28;19916;-28
2022/11/13 08:18:29;;;;;;;;;;;;;;;12.31;98.18;101693.28;5087233;28;19931;-28
2022/11/13 08:20:54;;;;;;;;;;;;;;;12.35;99.69;101700.72;5087091;28;20338;-31
2022/11/13 08:23:20;;;;;;;;;;;;;;;12.53;98.71;101700.28;5087222;28;19942;-33
2022/11/13 08:25:45;;;;;;;;;;;;;;;12.48;97.78;101702.69;5087511;28;19922;-29
2022/11/13 08:28:11;;;;;;;;;;;;;;;12.44;98.23;101704.94;5087477;28;19916;-28
2022/11/13 08:30:36;;;;;;;;;;;;;;;12.45;98.01;101709.25;5087460;28;19978;-28
2022/11/13 08:33:02;;;;;;;;;;;;;;;12.71;96.81;101699.81;5068852;28;19922;-30
2022/11/13 08:35:27;;;;;;;;;;;;;;;12.62;98.49;101698.28;5086930;28;19919;-28
2022/11/13 08:37:52;;;;;;;;;;;;;;;12.63;98.75;101700.78;5087083;28;19912;-27
2022/11/13 08:40:18;;;;;;;;;;;;;;;12.76;98.23;101697.38;5087203;28;20447;-30
2022/11/13 08:42:43;;;;;;;;;;;;;;;12.92;97.27;101698.13;5089521;28;19915;-28
2022/11/13 08:45:09;;;;;;;;;;;;;;;12.79;97.50;101694.34;5091051;28;19922;-31
2022/11/13 08:47:34;;;;;;;;;;;;;;;12.88;97.96;101696.88;5072886;28;19919;-31
2022/11/13 08:50:00;;;;;;;;;;;;;;;13.12;96.97;101693.75;5091036;28;19916;-32
2022/11/13 08:52:25;;;;;;;;;;;;;;;13.26;95.73;101697.34;5090872;28;19912;-29
2022/11/13 08:54:50;;;;;;;;;;;;;;;13.14;95.11;101701.59;5072908;28;19916;-28
2022/11/13 08:57:16;;;;;;;;;;;;;;;13.31;96.32;101705.66;5072589;28;19916;-32
2022/11/13 08:59:41;;;;;;;;;;;;;;;13.33;95.14;101700.09;5072793;28;19916;-28
2022/11/13 09:02:06;;;;;;;;;;;;;;;13.58;93.57;101703.94;5090953;28;19942;-30
2022/11/13 09:04:32;;;;;;;;;;;;;;;13.48;93.88;101698.09;5091107;28;20677;-31
2022/11/13 09:06:57;;;;;;;;;;;;;;;13.38;95.26;101703.00;5090087;28;19916;-28
2022/11/13 09:09:22;;;;;;;;;;;;;;;13.56;95.82;101695.25;5091072;28;19915;-28
2022/11/13 09:11:48;;;;;;;;;;;;;;;13.86;93.44;101689.63;5091268;28;20450;-29
2022/11/13 09:14:13;;;;;;;;;;;;;;;13.81;91.81;101694.75;5072367;28;19919;-29
2022/11/13 09:16:39;;;;;;;;;;;;;;;13.87;91.77;101669.81;5072311;28;19923;-28
2022/11/13 09:19:05;;;;;;;;;;;;;;;14.12;91.95;101682.69;5090511;28;19920;-29
2022/11/13 09:21:30;;;;;;;;;;;;;;;14.25;92.72;101686.22;5090348;28;19920;-31
2022/11/13 09:23:55;;;;;;;;;;;;;;;14.39;91.69;101679.03;5072260;28;19916;-30
2022/11/13 09:26:20;;;;;;;;;;;;;;;14.40;89.31;101672.59;5090921;28;19940;-31
2022/11/13 09:28:46;;;;;;;;;;;;;;;14.46;88.89;101674.50;5071938;28;19919;-30
2022/11/13 09:31:11;;;;;;;;;;;;;;;14.62;90.34;101672.47;5090495;28;19915;-29
2022/11/13 09:33:36;;;;;;;;;;;;;;;14.66;86.84;101671.03;5088742;28;19916;-28
2022/11/13 09:36:02;;;;;;;;;;;;;;;14.75;88.37;101674.31;5089965;28;20621;-30
2022/11/13 09:38:30;;;;;;;;;;;;;;;14.42;85.97;101670.53;5088519;28;19947;-33
2022/11/13 09:41:07;;;;;;;;;;;;;;;14.74;87.77;101661.94;5089906;28;19920;-28
2022/11/13 09:43:35;;;;;;;;;;;;;;;14.91;87.03;101657.78;5090338;28;19916;-28
2022/11/13 09:46:03;;;;;;;;;;;;;;;14.75;84.09;101655.53;5071712;28;19916;-30
2022/11/13 09:48:36;;;;;;;;;;;;;;;14.89;80.78;101650.97;5089858;28;19912;-33
2022/11/13 09:51:17;;;;;;;;;;;;;;;14.79;81.13;101651.38;5089941;28;20468;-28
2022/11/13 09:53:42;;;;;;;;;;;;;;;15.15;82.07;101647.41;5070656;28;19923;-29
2022/11/13 09:56:08;;;;;;;;;;;;;;;15.32;80.66;101645.91;5089930;28;19916;-33
2022/11/13 09:58:44;;;;;;;;;;;;;;;15.57;80.11;101640.66;5089920;28;20052;-30
2022/11/13 10:01:30;;;;;;;;;;;;;;;15.52;80.82;101639.63;5088096;28;19920;-29
2022/11/13 10:03:59;;;;;;;;;;;;;;;15.28;79.14;101631.22;5071659;28;19920;-29
2022/11/13 10:06:30;;;;;;;;;;;;;;;15.23;81.10;101637.25;5089396;28;20065;-28
2022/11/13 10:09:13;;;;;;;;;;;;;;;15.34;78.55;101626.88;5089456;28;19923;-30
2022/11/13 10:11:53;;;;;;;;;;;;;;;15.50;79.60;101626.41;5089761;28;20379;-30
2022/11/13 10:14:24;;;;;;;;;;;;;;;15.72;78.89;101634.19;5088169;28;19923;-32
2022/11/13 10:16:52;;;;;;;;;;;;;;;15.82;77.16;101626.50;5089318;28;19916;-29
2022/11/13 10:19:26;;;;;;;;;;;;;;;15.91;76.91;101619.81;5087962;28;19980;-36
2022/11/13 10:21:57;;;;;;;;;;;;;;;15.94;76.73;101621.25;5089253;28;19916;-31
2022/11/13 10:24:33;;;;;;;;;;;;;;;16.14;78.21;101615.72;5087940;28;20522;-29
2022/11/13 10:26:59;;;;;;;;;;;;;;;16.36;75.75;101602.72;5070857;28;19916;-30
2022/11/13 10:29:26;;;;;;;;;;;;;;;16.67;72.59;101612.59;5070836;28;19912;-30
2022/11/13 10:31:52;;;;;;;;;;;;;;;17.07;71.80;101609.53;5089623;28;20308;-30
2022/11/13 10:34:17;;;;;;;;;;;;;;;17.44;72.79;101604.13;5070617;28;19916;-30
2022/11/13 10:36:49;;;;;;;;;;;;;;;17.84;72.64;101595.53;5088623;28;20310;-32
2022/11/13 10:39:14;;;;;;;;;;;;;;;17.81;73.05;101593.25;5089162;28;19916;-30
2022/11/13 10:41:47;;;;;;;;;;;;;;;18.15;69.36;101591.75;5088940;28;19919;-28
2022/11/13 10:44:19;;;;;;;;;;;;;;;18.40;71.41;101594.22;5070805;28;20383;-30
2022/11/13 10:46:45;;;;;;;;;;;;;;;18.85;65.30;101595.56;5070038;28;20368;-29
2022/11/13 10:49:12;;;;;;;;;;;;;;;18.79;67.73;101594.59;5070273;28;19919;-29
2022/11/13 10:51:38;;;;;;;;;;;;;;;18.72;66.46;101588.50;5087392;28;19916;-32
2022/11/13 10:54:19;;;;;;;;;;;;;;;18.75;67.29;101584.50;5088722;28;19919;-34
2022/11/13 10:56:54;;;;;;;;;;;;;;;18.23;67.63;101587.88;5088302;28;20296;-30
2022/11/13 10:59:20;;;;;;;;;;;;;;;18.20;67.86;101572.13;5087158;28;19968;-31
2022/11/13 11:01:45;;;;;;;;;;;;;;;18.84;66.53;101572.31;5088692;28;19920;-28
2022/11/13 11:04:31;;;;;;;;;;;;;;;18.86;66.47;101573.69;5088438;28;19915;-31
2022/11/13 11:07:03;;;;;;;;;;;;;;;19.24;65.31;101561.50;5069289;28;20345;-28
2022/11/13 11:09:32;;;;;;;;;;;;;;;19.63;63.76;101555.47;5088701;28;20366;-29
2022/11/13 11:12:15;;;;;;;;;;;;;;;19.05;63.59;101554.63;5087846;28;20036;-29
2022/11/13 11:14:55;;;;;;;;;;;;;;;18.85;62.89;101561.22;5088536;28;19912;-28
2022/11/13 11:17:39;;;;;;;;;;;;;;;18.47;65.78;101551.72;5069587;28;19955;-31
2022/11/13 11:20:05;;;;;;;;;;;;;;;19.19;63.93;101550.59;5088242;28;19916;-33
2022/11/13 11:22:32;;;;;;;;;;;;;;;19.37;61.19;101551.44;5088099;28;19919;-31
2022/11/13 11:25:05;;;;;;;;;;;;;;;19.04;62.30;101547.56;5088221;28;19919;-29
2022/11/13 11:27:30;;;;;;;;;;;;;;;19.18;60.52;101543.53;5070150;28;20060;-31
2022/11/13 11:30:03;;;;;;;;;;;;;;;19.34;60.19;101541.94;5088241;28;20391;-39
2022/11/13 11:32:28;;;;;;;;;;;;;;;18.73;62.09;101541.47;5069902;28;19920;-30
2022/11/13 11:35:20;;;;;;;;;;;;;;;18.58;64.53;101538.44;5069208;28;20354;-33
2022/11/13 11:37:53;;;;;;;;;;;;;;;18.10;64.36;101534.09;5086036;28;20315;-35
2022/11/13 11:40:24;;;;;;;;;;;;;;;17.93;65.99;101529.38;5069365;28;19922;-30
2022/11/13 11:43:10;;;;;;;;;;;;;;;17.72;66.02;101519.91;5087881;28;20480;-33
2022/11/13 11:45:38;;;;;;;;;;;;;;;17.61;66.34;101512.59;5069584;28;19920;-29
2022/11/13 11:48:08;;;;;;;;;;;;;;;17.52;66.87;101517.50;5086315;28;19985;-31
2022/11/13 11:50:37;;;;;;;;;;;;;;;17.74;64.46;101517.00;5086202;28;19920;-34
2022/11/13 11:53:19;;;;;;;;;;;;;;;17.63;64.75;101510.50;5087640;28;19912;-29
2022/11/13 11:55:52;;;;;;;;;;;;;;;17.37;67.60;101507.16;5087332;28;19966;-30
2022/11/13 11:58:33;;;;;;;;;;;;;;;17.61;65.29;101510.75;5086217;28;19916;-29
2022/11/13 12:01:10;;;;;;;;;;;;;;;18.91;61.45;101499.19;5087317;28;19918;-28
2022/11/13 12:03:42;;;;;;;;;;;;;;;19.21;58.76;101502.47;5087777;28;19912;-36
2022/11/13 12:06:08;;;;;;;;;;;;;;;19.61;56.79;101492.63;5069311;28;19923;-31
2022/11/13 12:08:43;;;;;;;;;;;;;;;19.57;57.18;101497.72;5088185;28;19942;-30
2022/11/13 12:11:16;;;;;;;;;;;;;;;19.74;58.81;101496.97;5069621;28;19983;-32
2022/11/13 12:13:41;;;;;;;;;;;;;;;19.64;54.79;101498.38;5087986;28;19965;-33
2022/11/13 12:16:28;;;;;;;;;;;;;;;20.12;55.38;101485.38;5087053;28;19939;-29
2022/11/13 12:19:05;;;;;;;;;;;;;;;20.30;54.73;101483.47;5069144;28;19971;-34
2022/11/13 12:21:30;;;;;;;;;;;;;;;20.81;52.97;101489.59;5068871;28;19916;-35
2022/11/13 12:23:58;;;;;;;;;;;;;;;20.77;54.07;101483.84;5087498;28;20409;-29
2022/11/13 12:26:24;;;;;;;;;;;;;;;21.00;50.99;101482.78;5069086;28;20011;-30
2022/11/13 12:28:59;;;;;;;;;;;;;;;21.21;50.64;101480.28;5087110;28;20011;-31
2022/11/13 12:31:51;;;;;;;;;;;;;;;21.92;49.90;101487.44;5085853;28;20367;-35
2022/11/13 12:34:27;;;;;;;;;;;;;;;21.59;50.58;101473.06;5070477;28;19923;-29
2022/11/13 12:36:53;;;;;;;;;;;;;;;20.30;52.83;101473.44;5087135;28;19912;-28